Time;durP1;ratioP1;P1;durP2;ratioP2;P2;SDS_P1;SDS_P2;PMS_P1;PMS_P2;Temp;Humidity;BMP_temperature;BMP_pressure;BME280_temperature;BME280_humidity;BME280_pressure;Samples;Min_cycle;Max_cycle;Signal;HPM_P1;HPM_P2
2021/10/11 00:00:48;;;;;;;;;;;25.20;29.10;;;;;;484063;246;1082;-74
2021/10/11 00:02:50;;;;;;;;;;;25.10;29.10;;;;;;484081;239;1171;-73
2021/10/11 00:04:51;;;;;;;;;;;25.20;28.90;;;;;;484114;246;994;-73
2021/10/11 00:06:52;;;;;;;;;;;25.20;29.10;;;;;;484062;246;1095;-73
2021/10/11 00:08:54;;;;;;;;;;;24.90;29.20;;;;;;484145;246;2200;-73
2021/10/11 00:10:55;;;;;;;;;;;25.10;29.10;;;;;;484121;246;1103;-74
2021/10/11 00:12:56;;;;;;;;;;;25.70;28.60;;;;;;484163;246;1211;-73
2021/10/11 00:14:58;;;;;;;;;;;25.30;28.90;;;;;;484091;246;978;-73
2021/10/11 00:16:59;;;;;;;;;;;25.50;28.60;;;;;;484004;246;1069;-73
2021/10/11 00:19:00;;;;;;;;;;;25.40;28.80;;;;;;484140;246;1006;-73
2021/10/11 00:21:02;;;;;;;;;;;25.00;28.90;;;;;;484077;246;1161;-73
2021/10/11 00:23:03;;;;;;;;;;;25.40;28.80;;;;;;484109;246;1053;-73
2021/10/11 00:25:05;;;;;;;;;;;25.10;28.90;;;;;;484137;246;974;-73
2021/10/11 00:27:06;;;;;;;;;;;25.00;29.00;;;;;;484067;246;1088;-73
2021/10/11 00:29:07;;;;;;;;;;;24.90;28.90;;;;;;484075;246;2188;-73
2021/10/11 00:31:10;;;;;;;;;;;25.20;28.80;;;;;;484108;246;1134;-73
2021/10/11 00:33:10;;;;;;;;;;;25.10;28.80;;;;;;484029;246;1395;-73
2021/10/11 00:35:11;;;;;;;;;;;24.90;28.90;;;;;;484133;246;947;-73
2021/10/11 00:37:13;;;;;;;;;;;25.30;28.80;;;;;;484087;246;1172;-73
2021/10/11 00:39:14;;;;;;;;;;;25.10;28.90;;;;;;484191;246;1108;-73
2021/10/11 00:41:15;;;;;;;;;;;25.20;28.70;;;;;;484121;246;1151;-74
2021/10/11 00:43:17;;;;;;;;;;;25.40;28.70;;;;;;484164;246;1143;-73
2021/10/11 00:45:18;;;;;;;;;;;25.10;28.40;;;;;;484147;246;1114;-73
2021/10/11 00:47:20;;;;;;;;;;;25.50;28.60;;;;;;484095;246;1050;-73
2021/10/11 00:49:21;;;;;;;;;;;24.80;29.00;;;;;;484157;246;2137;-73
2021/10/11 00:51:22;;;;;;;;;;;24.80;28.90;;;;;;484036;246;1248;-73
2021/10/11 00:53:23;;;;;;;;;;;25.00;28.90;;;;;;484112;246;1044;-73
2021/10/11 00:55:25;;;;;;;;;;;25.00;28.80;;;;;;484164;246;950;-73
2021/10/11 00:57:26;;;;;;;;;;;24.90;29.00;;;;;;484129;246;1095;-73
2021/10/11 00:59:27;;;;;;;;;;;24.90;29.00;;;;;;484162;246;1152;-73
2021/10/11 01:01:29;;;;;;;;;;;24.70;29.10;;;;;;484128;242;1157;-73
2021/10/11 01:03:30;;;;;;;;;;;24.70;29.00;;;;;;484129;246;1205;-73
2021/10/11 01:05:31;;;;;;;;;;;24.60;29.30;;;;;;484079;246;1008;-73
2021/10/11 01:07:33;;;;;;;;;;;24.60;29.30;;;;;;483971;246;1070;-73
2021/10/11 01:09:34;;;;;;;;;;;24.50;29.20;;;;;;484104;246;2192;-73
2021/10/11 01:11:35;;;;;;;;;;;24.70;29.20;;;;;;484016;246;1199;-73
2021/10/11 01:13:37;;;;;;;;;;;24.50;29.20;;;;;;484171;246;1111;-73
2021/10/11 01:15:38;;;;;;;;;;;24.30;29.30;;;;;;484104;246;1382;-73
2021/10/11 01:17:39;;;;;;;;;;;24.40;29.40;;;;;;484120;246;1045;-73
2021/10/11 01:19:41;;;;;;;;;;;24.30;29.40;;;;;;484115;246;1121;-73
2021/10/11 01:21:42;;;;;;;;;;;24.30;29.40;;;;;;484012;246;1203;-74
2021/10/11 01:23:43;;;;;;;;;;;24.30;29.50;;;;;;484095;246;1001;-73
2021/10/11 01:25:45;;;;;;;;;;;24.40;29.40;;;;;;484103;246;1257;-73
2021/10/11 01:27:46;;;;;;;;;;;24.30;29.40;;;;;;484115;246;1195;-73
2021/10/11 01:29:47;;;;;;;;;;;24.20;29.50;;;;;;484073;246;2183;-73
2021/10/11 01:31:49;;;;;;;;;;;24.10;29.50;;;;;;484101;246;1176;-73
2021/10/11 01:33:50;;;;;;;;;;;24.30;29.40;;;;;;484123;246;1049;-73
2021/10/11 01:35:51;;;;;;;;;;;24.30;29.30;;;;;;484102;246;1109;-73
2021/10/11 01:37:53;;;;;;;;;;;24.30;29.30;;;;;;484092;246;1262;-73
2021/10/11 01:39:54;;;;;;;;;;;24.10;29.40;;;;;;484134;246;956;-73
2021/10/11 01:41:56;;;;;;;;;;;24.10;29.60;;;;;;484120;246;1188;-73
2021/10/11 01:43:57;;;;;;;;;;;24.10;29.50;;;;;;484153;246;1135;-73
2021/10/11 01:45:58;;;;;;;;;;;23.90;29.50;;;;;;484089;246;1158;-73
2021/10/11 01:47:59;;;;;;;;;;;24.20;29.40;;;;;;484095;246;1099;-73
2021/10/11 01:50:01;;;;;;;;;;;24.10;29.50;;;;;;484168;246;2137;-73
2021/10/11 01:52:02;;;;;;;;;;;24.00;29.50;;;;;;484122;246;1051;-73
2021/10/11 01:54:03;;;;;;;;;;;24.00;29.40;;;;;;484151;246;1123;-73
2021/10/11 01:56:05;;;;;;;;;;;24.00;29.50;;;;;;484130;246;1266;-73
2021/10/11 01:58:06;;;;;;;;;;;24.10;29.50;;;;;;484152;246;1107;-73
2021/10/11 02:00:08;;;;;;;;;;;24.00;29.50;;;;;;484127;246;1211;-73
2021/10/11 02:02:09;;;;;;;;;;;24.10;29.40;;;;;;484082;246;1210;-73
2021/10/11 02:04:11;;;;;;;;;;;24.00;29.40;;;;;;484196;246;1170;-73
2021/10/11 02:06:12;;;;;;;;;;;24.10;29.40;;;;;;484026;246;1220;-73
2021/10/11 02:08:13;;;;;;;;;;;24.10;29.40;;;;;;484083;246;1075;-73
2021/10/11 02:10:15;;;;;;;;;;;24.00;29.40;;;;;;484122;246;2120;-73
2021/10/11 02:12:16;;;;;;;;;;;24.10;29.30;;;;;;484057;246;1193;-73
2021/10/11 02:14:17;;;;;;;;;;;24.00;29.40;;;;;;484118;246;1176;-73
2021/10/11 02:16:19;;;;;;;;;;;24.00;29.40;;;;;;484019;242;1238;-73
2021/10/11 02:18:20;;;;;;;;;;;24.10;29.30;;;;;;484165;246;1125;-73
2021/10/11 02:20:21;;;;;;;;;;;24.00;29.40;;;;;;484091;246;1012;-73
2021/10/11 02:22:23;;;;;;;;;;;24.00;29.30;;;;;;483962;246;1150;-73
2021/10/11 02:24:24;;;;;;;;;;;24.10;29.30;;;;;;484143;246;934;-73
2021/10/11 02:26:25;;;;;;;;;;;24.10;29.30;;;;;;484078;246;1314;-73
2021/10/11 02:28:27;;;;;;;;;;;24.00;29.40;;;;;;484144;246;963;-73
2021/10/11 02:30:28;;;;;;;;;;;24.00;29.30;;;;;;484160;246;2125;-73
2021/10/11 02:32:29;;;;;;;;;;;24.00;29.20;;;;;;484072;246;1225;-73
2021/10/11 02:34:30;;;;;;;;;;;24.00;29.20;;;;;;484201;246;993;-73
2021/10/11 02:36:32;;;;;;;;;;;24.10;29.20;;;;;;484183;246;1177;-73
2021/10/11 02:38:33;;;;;;;;;;;24.00;29.30;;;;;;484150;246;1116;-74
2021/10/11 02:40:36;;;;;;;;;;;24.10;29.20;;;;;;484138;246;1143;-73
2021/10/11 02:42:37;;;;;;;;;;;24.10;29.10;;;;;;484125;242;1477;-73
2021/10/11 02:44:38;;;;;;;;;;;24.40;29.10;;;;;;484165;246;952;-73
2021/10/11 02:46:40;;;;;;;;;;;23.90;29.30;;;;;;484109;246;1198;-73
2021/10/11 02:48:41;;;;;;;;;;;24.10;29.30;;;;;;484096;246;1097;-73
2021/10/11 02:50:42;;;;;;;;;;;24.00;29.30;;;;;;484065;246;2188;-73
2021/10/11 02:52:44;;;;;;;;;;;24.00;29.30;;;;;;484002;246;1144;-73
2021/10/11 02:54:45;;;;;;;;;;;23.80;29.40;;;;;;484185;246;959;-73
2021/10/11 02:56:46;;;;;;;;;;;23.90;29.40;;;;;;484086;246;1204;-73
2021/10/11 02:58:48;;;;;;;;;;;23.80;29.50;;;;;;484170;246;1030;-73
2021/10/11 03:00:49;;;;;;;;;;;23.90;29.40;;;;;;484114;246;1149;-73
2021/10/11 03:02:50;;;;;;;;;;;24.30;29.20;;;;;;484102;246;1220;-73
2021/10/11 03:04:52;;;;;;;;;;;23.80;29.40;;;;;;484105;246;928;-73
2021/10/11 03:06:53;;;;;;;;;;;23.80;29.50;;;;;;484042;242;1278;-73
2021/10/11 03:08:54;;;;;;;;;;;24.00;29.40;;;;;;484109;246;1104;-73
2021/10/11 03:10:57;;;;;;;;;;;24.40;29.00;;;;;;484110;246;2121;-73
2021/10/11 03:12:57;;;;;;;;;;;24.50;28.80;;;;;;484055;246;1343;-73
2021/10/11 03:14:58;;;;;;;;;;;24.70;28.70;;;;;;484142;246;1050;-73
2021/10/11 03:17:00;;;;;;;;;;;24.80;28.50;;;;;;484047;246;1185;-73
2021/10/11 03:19:01;;;;;;;;;;;25.20;28.30;;;;;;484137;246;1045;-73
2021/10/11 03:21:02;;;;;;;;;;;25.00;28.30;;;;;;484124;246;1225;-73
2021/10/11 03:23:03;;;;;;;;;;;25.00;28.30;;;;;;484138;246;1065;-73
2021/10/11 03:25:05;;;;;;;;;;;25.10;28.20;;;;;;484159;246;973;-73
2021/10/11 03:27:06;;;;;;;;;;;25.20;28.20;;;;;;484153;246;1291;-73
2021/10/11 03:29:07;;;;;;;;;;;25.10;28.10;;;;;;484190;246;978;-73
2021/10/11 03:31:09;;;;;;;;;;;25.20;28.10;;;;;;484134;246;2175;-73
2021/10/11 03:33:10;;;;;;;;;;;25.20;28.00;;;;;;484171;246;1004;-73
2021/10/11 03:35:11;;;;;;;;;;;25.10;28.10;;;;;;484163;246;959;-73
2021/10/11 03:37:13;;;;;;;;;;;25.20;28.00;;;;;;484100;246;1156;-73
2021/10/11 03:39:14;;;;;;;;;;;25.30;28.10;;;;;;484192;246;937;-73
2021/10/11 03:41:15;;;;;;;;;;;25.20;28.10;;;;;;483979;246;1216;-73
2021/10/11 03:43:17;;;;;;;;;;;25.20;27.80;;;;;;484084;246;1206;-73
2021/10/11 03:45:18;;;;;;;;;;;25.20;27.90;;;;;;484101;246;992;-74
2021/10/11 03:47:19;;;;;;;;;;;25.20;27.90;;;;;;483991;246;1267;-73
2021/10/11 03:49:21;;;;;;;;;;;25.20;28.00;;;;;;484147;246;1000;-73
2021/10/11 03:51:22;;;;;;;;;;;25.20;27.90;;;;;;484121;246;2112;-73
2021/10/11 03:53:23;;;;;;;;;;;25.40;27.90;;;;;;484130;246;1119;-74
2021/10/11 03:55:25;;;;;;;;;;;25.20;27.90;;;;;;484098;246;1222;-73
2021/10/11 03:57:26;;;;;;;;;;;25.00;28.10;;;;;;484079;246;1123;-73
2021/10/11 03:59:27;;;;;;;;;;;25.20;27.80;;;;;;484110;246;1098;-73
2021/10/11 04:01:29;;;;;;;;;;;25.30;27.90;;;;;;484111;246;1153;-73
2021/10/11 04:03:31;;;;;;;;;;;25.30;27.70;;;;;;484128;246;1065;-73
2021/10/11 04:05:31;;;;;;;;;;;25.30;27.90;;;;;;484061;246;1444;-73
2021/10/11 04:07:33;;;;;;;;;;;25.50;27.70;;;;;;484127;246;1033;-73
2021/10/11 04:09:34;;;;;;;;;;;25.40;27.60;;;;;;484036;246;2128;-73
2021/10/11 04:11:36;;;;;;;;;;;25.30;27.70;;;;;;483996;246;1199;-73
2021/10/11 04:13:37;;;;;;;;;;;25.30;27.80;;;;;;484052;246;938;-74
2021/10/11 04:15:38;;;;;;;;;;;25.30;27.70;;;;;;484065;246;1119;-73
2021/10/11 04:17:39;;;;;;;;;;;25.10;27.90;;;;;;484012;246;1261;-73
2021/10/11 04:19:41;;;;;;;;;;;25.30;27.80;;;;;;484134;246;1038;-73
2021/10/11 04:21:43;;;;;;;;;;;25.30;27.80;;;;;;484072;246;1194;-74
2021/10/11 04:23:44;;;;;;;;;;;25.20;27.80;;;;;;483936;246;965;-73
2021/10/11 04:25:45;;;;;;;;;;;25.60;27.60;;;;;;484073;246;1036;-74
2021/10/11 04:27:47;;;;;;;;;;;25.40;27.60;;;;;;484033;246;1221;-74
2021/10/11 04:29:48;;;;;;;;;;;25.60;27.60;;;;;;484028;246;2197;-73
2021/10/11 04:31:49;;;;;;;;;;;25.50;27.60;;;;;;484001;243;1296;-73
2021/10/11 04:33:51;;;;;;;;;;;25.50;27.60;;;;;;484003;246;986;-73
2021/10/11 04:35:52;;;;;;;;;;;25.20;27.70;;;;;;483907;246;1085;-74
2021/10/11 04:37:53;;;;;;;;;;;25.40;27.60;;;;;;483971;246;1021;-73
2021/10/11 04:39:55;;;;;;;;;;;25.40;27.60;;;;;;484032;246;984;-73
2021/10/11 04:41:56;;;;;;;;;;;25.50;27.50;;;;;;483924;246;1116;-74
2021/10/11 04:43:57;;;;;;;;;;;25.20;27.60;;;;;;484008;246;1095;-74
2021/10/11 04:45:59;;;;;;;;;;;25.30;27.70;;;;;;483947;246;941;-73
2021/10/11 04:48:00;;;;;;;;;;;25.20;27.70;;;;;;483929;246;1207;-73
2021/10/11 04:50:01;;;;;;;;;;;25.30;27.60;;;;;;483955;246;2171;-74
2021/10/11 04:52:03;;;;;;;;;;;25.60;27.50;;;;;;483957;246;1323;-73
2021/10/11 04:54:04;;;;;;;;;;;25.30;27.60;;;;;;483958;246;961;-74
2021/10/11 04:56:05;;;;;;;;;;;25.40;27.50;;;;;;483871;246;1015;-73
2021/10/11 04:58:07;;;;;;;;;;;25.50;27.50;;;;;;483835;246;1064;-73
2021/10/11 05:00:08;;;;;;;;;;;25.60;27.40;;;;;;483853;246;993;-73
2021/10/11 05:02:09;;;;;;;;;;;25.50;27.40;;;;;;483809;246;1150;-73
2021/10/11 05:04:10;;;;;;;;;;;25.40;27.50;;;;;;483770;246;986;-73
2021/10/11 05:06:12;;;;;;;;;;;25.50;27.50;;;;;;483675;246;1134;-73
2021/10/11 05:08:13;;;;;;;;;;;25.20;27.60;;;;;;483626;246;996;-73
2021/10/11 05:10:15;;;;;;;;;;;25.20;27.50;;;;;;483723;246;2215;-73
2021/10/11 05:12:16;;;;;;;;;;;25.30;27.50;;;;;;483737;246;1327;-73
2021/10/11 05:14:17;;;;;;;;;;;25.40;27.50;;;;;;483719;246;968;-73
2021/10/11 05:16:18;;;;;;;;;;;25.40;27.40;;;;;;483721;246;1103;-74
2021/10/11 05:18:20;;;;;;;;;;;25.40;27.50;;;;;;483841;246;1183;-74
2021/10/11 05:20:21;;;;;;;;;;;25.30;27.40;;;;;;483768;246;1180;-74
2021/10/11 05:22:22;;;;;;;;;;;25.30;27.60;;;;;;483763;246;1180;-74
2021/10/11 05:24:24;;;;;;;;;;;25.50;27.30;;;;;;483748;246;1150;-73
2021/10/11 05:26:26;;;;;;;;;;;25.40;27.40;;;;;;483652;246;1498;-73
2021/10/11 05:28:27;;;;;;;;;;;25.20;27.50;;;;;;483520;246;1361;-73
2021/10/11 05:30:28;;;;;;;;;;;25.00;27.50;;;;;;483796;246;2189;-73
2021/10/11 05:32:29;;;;;;;;;;;25.20;27.60;;;;;;483769;246;1166;-73
2021/10/11 05:34:31;;;;;;;;;;;25.10;27.50;;;;;;483777;246;985;-73
2021/10/11 05:36:32;;;;;;;;;;;25.30;27.50;;;;;;483721;246;1258;-73
2021/10/11 05:38:34;;;;;;;;;;;25.30;27.40;;;;;;483696;246;1123;-74
2021/10/11 05:40:35;;;;;;;;;;;25.50;27.40;;;;;;483769;246;987;-73
2021/10/11 05:42:36;;;;;;;;;;;25.20;27.40;;;;;;483683;246;1172;-73
2021/10/11 05:44:38;;;;;;;;;;;25.20;27.40;;;;;;483679;246;1170;-73
2021/10/11 05:46:39;;;;;;;;;;;25.30;27.50;;;;;;483533;246;1249;-73
2021/10/11 05:48:41;;;;;;;;;;;25.20;27.40;;;;;;483593;246;1274;-74
2021/10/11 05:50:42;;;;;;;;;;;25.30;27.40;;;;;;483514;246;2188;-74
2021/10/11 05:52:43;;;;;;;;;;;25.50;27.40;;;;;;483601;246;1217;-74
2021/10/11 05:54:45;;;;;;;;;;;25.40;27.40;;;;;;483610;246;977;-74
2021/10/11 05:56:46;;;;;;;;;;;25.40;27.40;;;;;;483429;246;1168;-74
2021/10/11 05:58:47;;;;;;;;;;;25.40;27.40;;;;;;483477;246;945;-74
2021/10/11 06:00:49;;;;;;;;;;;25.40;27.40;;;;;;483394;246;1207;-74
2021/10/11 06:02:50;;;;;;;;;;;25.40;27.20;;;;;;483380;246;1129;-74
2021/10/11 06:04:51;;;;;;;;;;;25.40;27.40;;;;;;483565;246;1014;-74
2021/10/11 06:06:53;;;;;;;;;;;25.50;27.10;;;;;;483545;246;1071;-74
2021/10/11 06:08:54;;;;;;;;;;;25.40;27.30;;;;;;483545;246;1223;-74
2021/10/11 06:10:55;;;;;;;;;;;25.20;27.30;;;;;;483458;246;2110;-74
2021/10/11 06:12:57;;;;;;;;;;;25.30;27.30;;;;;;483439;246;1137;-74
2021/10/11 06:14:58;;;;;;;;;;;25.40;27.30;;;;;;483464;246;992;-73
2021/10/11 06:16:59;;;;;;;;;;;25.50;27.30;;;;;;483438;246;1141;-73
2021/10/11 06:19:01;;;;;;;;;;;25.60;27.30;;;;;;483349;246;1181;-73
2021/10/11 06:21:02;;;;;;;;;;;25.50;27.30;;;;;;483538;246;1018;-73
2021/10/11 06:23:03;;;;;;;;;;;25.40;27.40;;;;;;483457;246;1242;-74
2021/10/11 06:25:05;;;;;;;;;;;25.30;27.40;;;;;;483324;246;997;-74
2021/10/11 06:27:06;;;;;;;;;;;25.30;27.50;;;;;;483331;246;977;-73
2021/10/11 06:29:07;;;;;;;;;;;25.20;27.50;;;;;;483161;246;1350;-74
2021/10/11 06:31:09;;;;;;;;;;;25.40;27.50;;;;;;483230;246;2133;-74
2021/10/11 06:33:10;;;;;;;;;;;25.40;27.40;;;;;;483243;246;1213;-74
2021/10/11 06:35:11;;;;;;;;;;;25.50;27.50;;;;;;483556;246;967;-74
2021/10/11 06:37:13;;;;;;;;;;;25.30;27.50;;;;;;483437;246;1092;-73
2021/10/11 06:39:14;;;;;;;;;;;25.20;27.60;;;;;;483285;246;1105;-73
2021/10/11 06:41:15;;;;;;;;;;;25.20;27.60;;;;;;482994;246;1150;-73
2021/10/11 06:43:17;;;;;;;;;;;25.20;27.70;;;;;;483219;246;1189;-73
2021/10/11 06:45:18;;;;;;;;;;;25.40;27.60;;;;;;483367;246;992;-73
2021/10/11 06:47:20;;;;;;;;;;;25.30;27.70;;;;;;483345;246;1085;-74
2021/10/11 06:49:21;;;;;;;;;;;25.40;27.60;;;;;;483316;246;1107;-74
2021/10/11 06:51:22;;;;;;;;;;;25.50;27.50;;;;;;483389;246;2199;-74
2021/10/11 06:53:24;;;;;;;;;;;25.60;27.50;;;;;;483330;246;1145;-74
2021/10/11 06:55:25;;;;;;;;;;;25.50;27.60;;;;;;483087;246;1212;-73
2021/10/11 06:57:26;;;;;;;;;;;25.40;27.80;;;;;;483023;246;1155;-73
2021/10/11 06:59:28;;;;;;;;;;;25.20;27.80;;;;;;483228;246;1022;-73
2021/10/11 07:01:29;;;;;;;;;;;25.40;27.80;;;;;;483250;246;1150;-74
2021/10/11 07:03:30;;;;;;;;;;;25.30;27.90;;;;;;483357;246;1185;-73
2021/10/11 07:05:32;;;;;;;;;;;25.20;27.90;;;;;;483136;246;1059;-74
2021/10/11 07:07:33;;;;;;;;;;;25.40;28.00;;;;;;483123;246;1298;-73
2021/10/11 07:09:34;;;;;;;;;;;25.00;28.30;;;;;;483262;246;1174;-74
2021/10/11 07:11:35;;;;;;;;;;;25.00;28.30;;;;;;483211;246;2129;-73
2021/10/11 07:13:37;;;;;;;;;;;25.20;28.20;;;;;;483218;246;1238;-73
2021/10/11 07:15:38;;;;;;;;;;;25.20;28.30;;;;;;483029;246;1096;-73
2021/10/11 07:17:40;;;;;;;;;;;24.90;28.30;;;;;;483115;246;1170;-73
2021/10/11 07:19:45;;;;;;;;;;;25.00;28.30;;;;;;483226;246;1188;-73
2021/10/11 07:21:43;;;;;;;;;;;25.10;28.40;;;;;;482981;246;1447;-73
2021/10/11 07:23:44;;;;;;;;;;;25.20;28.40;;;;;;483269;246;1008;-73
2021/10/11 07:25:45;;;;;;;;;;;25.40;28.40;;;;;;483041;246;1070;-73
2021/10/11 07:27:47;;;;;;;;;;;25.10;28.40;;;;;;483004;246;1442;-73
2021/10/11 07:29:48;;;;;;;;;;;25.50;28.30;;;;;;483115;246;1028;-73
2021/10/11 07:31:49;;;;;;;;;;;25.40;28.30;;;;;;483200;246;2188;-73
2021/10/11 07:33:51;;;;;;;;;;;25.30;28.40;;;;;;483175;246;1183;-73
2021/10/11 07:35:52;;;;;;;;;;;25.70;28.20;;;;;;483083;246;1510;-73
2021/10/11 07:37:53;;;;;;;;;;;25.50;28.30;;;;;;483152;246;1067;-74
2021/10/11 07:39:55;;;;;;;;;;;25.80;28.20;;;;;;483190;246;1086;-74
2021/10/11 07:41:58;;;;;;;;;;;25.60;28.40;;;;;;483077;246;1243;-74
2021/10/11 07:43:57;;;;;;;;;;;25.40;28.40;;;;;;483289;246;1974;-74
2021/10/11 07:46:02;;;;;;;;;;;25.70;28.30;;;;;;483070;246;1273;-74
2021/10/11 07:48:03;;;;;;;;;;;25.80;28.40;;;;;;483510;246;1078;-74
2021/10/11 07:50:05;;;;;;;;;;;25.80;28.30;;;;;;483338;246;1188;-74
2021/10/11 07:52:06;;;;;;;;;;;26.10;28.30;;;;;;483406;246;2199;-74
2021/10/11 07:54:07;;;;;;;;;;;26.10;28.30;;;;;;483369;243;1160;-74
2021/10/11 07:56:09;;;;;;;;;;;26.20;28.30;;;;;;483177;246;1055;-73
2021/10/11 07:58:10;;;;;;;;;;;26.20;28.20;;;;;;483212;246;1148;-73
2021/10/11 08:00:13;;;;;;;;;;;26.20;28.40;;;;;;483485;246;1078;-73
2021/10/11 08:02:13;;;;;;;;;;;26.30;28.30;;;;;;483127;246;1572;-74
2021/10/11 08:04:14;;;;;;;;;;;26.40;28.30;;;;;;483368;246;1105;-74
2021/10/11 08:06:15;;;;;;;;;;;26.30;28.30;;;;;;483949;246;1056;-73
2021/10/11 08:08:17;;;;;;;;;;;26.60;28.30;;;;;;483561;246;1036;-74
2021/10/11 08:10:18;;;;;;;;;;;26.40;28.40;;;;;;483484;246;1371;-74
2021/10/11 08:12:19;;;;;;;;;;;26.50;28.40;;;;;;483326;246;2125;-74
2021/10/11 08:14:21;;;;;;;;;;;26.40;28.50;;;;;;483281;246;953;-74
2021/10/11 08:16:22;;;;;;;;;;;26.40;28.50;;;;;;483132;246;1083;-73
2021/10/11 08:18:23;;;;;;;;;;;26.30;28.60;;;;;;482982;246;1151;-73
2021/10/11 08:20:25;;;;;;;;;;;26.50;28.60;;;;;;483149;246;1146;-74
2021/10/11 08:22:28;;;;;;;;;;;26.40;28.70;;;;;;483149;246;1137;-74
2021/10/11 08:24:28;;;;;;;;;;;26.60;28.60;;;;;;483036;246;1411;-73
2021/10/11 08:26:29;;;;;;;;;;;26.60;28.60;;;;;;483177;246;1206;-73
2021/10/11 08:28:31;;;;;;;;;;;26.60;28.60;;;;;;483216;246;1091;-73
2021/10/11 08:30:32;;;;;;;;;;;26.60;28.60;;;;;;483046;246;1185;-73
2021/10/11 08:32:34;;;;;;;;;;;26.70;28.70;;;;;;482959;246;2207;-74
2021/10/11 08:34:35;;;;;;;;;;;26.80;28.60;;;;;;483132;246;1155;-73
2021/10/11 08:36:36;;;;;;;;;;;26.80;28.60;;;;;;483223;246;1140;-73
2021/10/11 08:38:37;;;;;;;;;;;26.90;28.70;;;;;;483263;246;1121;-74
2021/10/11 08:40:39;;;;;;;;;;;26.90;28.70;;;;;;483032;246;1078;-74
2021/10/11 08:42:40;;;;;;;;;;;27.00;28.70;;;;;;483224;246;1133;-75
2021/10/11 08:44:41;;;;;;;;;;;26.90;28.80;;;;;;483401;246;1103;-74
2021/10/11 08:46:44;;;;;;;;;;;27.00;28.80;;;;;;483209;246;1176;-73
2021/10/11 08:48:45;;;;;;;;;;;27.00;28.90;;;;;;483077;246;1363;-74
2021/10/11 08:50:46;;;;;;;;;;;26.80;29.00;;;;;;483240;246;1224;-74
2021/10/11 08:52:49;;;;;;;;;;;26.90;29.00;;;;;;483243;246;2211;-74
2021/10/11 08:54:49;;;;;;;;;;;26.90;28.90;;;;;;483058;246;1512;-73
2021/10/11 08:56:50;;;;;;;;;;;26.90;29.00;;;;;;482886;246;1099;-73
2021/10/11 08:58:52;;;;;;;;;;;27.10;29.00;;;;;;483045;246;1188;-74
2021/10/11 09:00:53;;;;;;;;;;;27.00;29.00;;;;;;483107;246;1135;-73
2021/10/11 09:02:54;;;;;;;;;;;27.00;29.10;;;;;;483090;246;1051;-73
2021/10/11 09:04:56;;;;;;;;;;;27.00;29.10;;;;;;483067;246;1114;-74
2021/10/11 09:06:58;;;;;;;;;;;27.10;29.00;;;;;;483245;242;1350;-74
2021/10/11 09:08:59;;;;;;;;;;;27.00;29.10;;;;;;483214;246;943;-74
2021/10/11 09:11:00;;;;;;;;;;;27.20;29.00;;;;;;483219;246;1222;-74
2021/10/11 09:13:01;;;;;;;;;;;27.10;29.10;;;;;;483297;246;2176;-73
2021/10/11 09:15:03;;;;;;;;;;;27.10;29.10;;;;;;483104;246;1047;-73
2021/10/11 09:17:05;;;;;;;;;;;27.20;29.00;;;;;;483221;246;1544;-73
2021/10/11 09:19:05;;;;;;;;;;;27.10;29.10;;;;;;483515;246;1427;-73
2021/10/11 09:21:07;;;;;;;;;;;27.30;29.00;;;;;;483033;246;1242;-73
2021/10/11 09:23:09;;;;;;;;;;;27.20;29.00;;;;;;483134;246;1050;-73
2021/10/11 09:25:10;;;;;;;;;;;27.20;29.00;;;;;;483262;246;1091;-73
2021/10/11 09:27:12;;;;;;;;;;;27.00;29.20;;;;;;483145;246;1110;-74
2021/10/11 09:29:13;;;;;;;;;;;27.10;29.20;;;;;;483278;246;1038;-74
2021/10/11 09:31:14;;;;;;;;;;;27.20;29.10;;;;;;482828;246;1225;-73
2021/10/11 09:33:16;;;;;;;;;;;27.20;29.20;;;;;;482928;246;2200;-73
2021/10/11 09:35:17;;;;;;;;;;;27.20;29.10;;;;;;483191;246;1069;-74
2021/10/11 09:37:19;;;;;;;;;;;27.20;29.30;;;;;;483379;246;1208;-74
2021/10/11 09:39:20;;;;;;;;;;;27.10;29.30;;;;;;482713;246;997;-73
2021/10/11 09:41:21;;;;;;;;;;;27.20;29.30;;;;;;483032;246;1123;-74
2021/10/11 09:43:23;;;;;;;;;;;27.30;29.10;;;;;;483238;246;986;-73
2021/10/11 09:45:24;;;;;;;;;;;27.30;29.10;;;;;;483185;246;1040;-73
2021/10/11 09:47:29;;;;;;;;;;;27.20;29.20;;;;;;483201;246;1102;-73
2021/10/11 09:49:28;;;;;;;;;;;27.40;29.20;;;;;;482230;246;1439;-74
2021/10/11 09:51:29;;;;;;;;;;;27.20;29.20;;;;;;483180;246;1299;-73
2021/10/11 09:53:30;;;;;;;;;;;27.40;29.10;;;;;;483539;246;2192;-73
2021/10/11 09:55:33;;;;;;;;;;;27.30;29.10;;;;;;483235;246;1036;-74
2021/10/11 09:57:33;;;;;;;;;;;27.40;29.10;;;;;;483215;246;1418;-74
2021/10/11 09:59:34;;;;;;;;;;;27.50;29.10;;;;;;483263;246;1110;-74
2021/10/11 10:01:36;;;;;;;;;;;27.30;29.10;;;;;;483181;246;1213;-74
2021/10/11 10:03:37;;;;;;;;;;;27.30;29.20;;;;;;483247;246;1102;-74
2021/10/11 10:05:39;;;;;;;;;;;27.50;29.20;;;;;;483165;246;1294;-73
2021/10/11 10:07:40;;;;;;;;;;;27.50;29.10;;;;;;483096;246;1396;-74
2021/10/11 10:09:41;;;;;;;;;;;27.40;29.10;;;;;;483153;246;958;-74
2021/10/11 10:11:42;;;;;;;;;;;27.40;29.10;;;;;;482932;246;2195;-73
2021/10/11 10:13:46;;;;;;;;;;;27.60;29.10;;;;;;483034;246;1024;-73
2021/10/11 10:15:45;;;;;;;;;;;27.60;29.10;;;;;;483011;246;1506;-74
2021/10/11 10:17:46;;;;;;;;;;;27.50;29.10;;;;;;483127;246;1077;-74
2021/10/11 10:19:48;;;;;;;;;;;27.60;29.10;;;;;;483191;246;1069;-73
2021/10/11 10:21:49;;;;;;;;;;;27.60;29.00;;;;;;483180;246;1209;-73
2021/10/11 10:23:50;;;;;;;;;;;27.60;29.00;;;;;;483070;246;965;-73
2021/10/11 10:25:52;;;;;;;;;;;27.60;29.00;;;;;;483077;246;1122;-73
2021/10/11 10:27:54;;;;;;;;;;;27.60;29.10;;;;;;483200;246;1101;-73
2021/10/11 10:29:58;;;;;;;;;;;27.60;29.10;;;;;;483074;246;1031;-73
2021/10/11 10:31:57;;;;;;;;;;;27.60;29.10;;;;;;482750;246;2203;-73
2021/10/11 10:33:58;;;;;;;;;;;27.60;29.10;;;;;;483029;246;1085;-74
2021/10/11 10:35:59;;;;;;;;;;;27.70;29.00;;;;;;483224;246;1285;-74
2021/10/11 10:38:01;;;;;;;;;;;27.60;29.10;;;;;;483167;246;1108;-73
2021/10/11 10:40:02;;;;;;;;;;;27.60;29.10;;;;;;483238;246;990;-73
2021/10/11 10:42:04;;;;;;;;;;;27.60;29.10;;;;;;483193;246;1211;-74
2021/10/11 10:44:05;;;;;;;;;;;27.60;29.10;;;;;;483251;246;1083;-74
2021/10/11 10:46:06;;;;;;;;;;;27.70;29.00;;;;;;483270;246;1166;-74
2021/10/11 10:48:08;;;;;;;;;;;27.60;29.10;;;;;;483217;246;1172;-74
2021/10/11 10:50:09;;;;;;;;;;;27.70;29.10;;;;;;483094;246;1003;-73
2021/10/11 10:52:10;;;;;;;;;;;27.80;29.00;;;;;;483043;246;2203;-73
2021/10/11 10:54:12;;;;;;;;;;;27.80;29.00;;;;;;482519;246;1049;-74
2021/10/11 10:56:13;;;;;;;;;;;27.70;29.00;;;;;;483046;246;1065;-74
2021/10/11 10:58:16;;;;;;;;;;;27.70;29.00;;;;;;483157;246;1100;-74
2021/10/11 11:00:16;;;;;;;;;;;27.70;29.10;;;;;;482860;246;1323;-74
2021/10/11 11:02:17;;;;;;;;;;;27.60;29.10;;;;;;482816;246;1455;-73
2021/10/11 11:04:23;;;;;;;;;;;27.90;29.00;;;;;;482920;246;1062;-73
2021/10/11 11:06:20;;;;;;;;;;;27.80;28.90;;;;;;482834;246;1492;-74
2021/10/11 11:08:21;;;;;;;;;;;27.90;28.90;;;;;;483192;246;1035;-73
2021/10/11 11:10:22;;;;;;;;;;;27.80;28.90;;;;;;483115;246;963;-73
2021/10/11 11:12:24;;;;;;;;;;;27.70;28.90;;;;;;483120;246;2180;-74
2021/10/11 11:14:25;;;;;;;;;;;27.60;29.00;;;;;;483136;246;1056;-74
2021/10/11 11:16:26;;;;;;;;;;;27.50;29.10;;;;;;482922;246;1289;-73
2021/10/11 11:18:29;;;;;;;;;;;27.40;29.10;;;;;;483498;246;920;-74
2021/10/11 11:20:29;;;;;;;;;;;27.20;29.30;;;;;;482955;246;1388;-74
2021/10/11 11:22:31;;;;;;;;;;;27.30;29.40;;;;;;483085;246;1114;-73
2021/10/11 11:24:32;;;;;;;;;;;27.20;29.30;;;;;;483065;246;1372;-73
2021/10/11 11:26:33;;;;;;;;;;;26.90;29.50;;;;;;483040;246;1171;-74
2021/10/11 11:28:36;;;;;;;;;;;26.70;29.70;;;;;;483065;246;1090;-74
2021/10/11 11:30:36;;;;;;;;;;;26.50;29.60;;;;;;483065;246;1353;-73
2021/10/11 11:32:37;;;;;;;;;;;26.30;30.00;;;;;;483105;246;2125;-73
2021/10/11 11:34:38;;;;;;;;;;;25.90;30.30;;;;;;483178;246;944;-73
2021/10/11 11:36:40;;;;;;;;;;;26.20;30.20;;;;;;482888;246;1163;-73
2021/10/11 11:38:41;;;;;;;;;;;25.90;30.30;;;;;;483022;246;1040;-73
2021/10/11 11:40:42;;;;;;;;;;;25.80;30.50;;;;;;483030;246;1317;-73
2021/10/11 11:42:44;;;;;;;;;;;25.50;30.50;;;;;;482924;246;1098;-73
2021/10/11 11:44:45;;;;;;;;;;;25.90;30.40;;;;;;483076;246;1049;-73
2021/10/11 11:46:46;;;;;;;;;;;25.50;30.50;;;;;;483654;246;1179;-73
2021/10/11 11:48:48;;;;;;;;;;;25.80;30.60;;;;;;483109;246;1025;-73
2021/10/11 11:50:50;;;;;;;;;;;25.70;30.50;;;;;;483018;246;1163;-74
2021/10/11 11:52:52;;;;;;;;;;;25.50;30.70;;;;;;483176;246;2168;-74
2021/10/11 11:54:52;;;;;;;;;;;25.40;30.60;;;;;;483046;246;1498;-75
2021/10/11 11:56:53;;;;;;;;;;;25.40;30.90;;;;;;482928;246;1202;-73